createdAt,value
2018-05-18T00:01:04.281Z,12.67
2018-05-18T00:03:45.365Z,15.90
2018-05-18T00:06:26.072Z,19.10
2018-05-18T00:09:06.632Z,17.67
2018-05-18T00:11:47.952Z,14.83
2018-05-18T00:14:28.314Z,21.13
2018-05-18T00:17:09.668Z,16.83
2018-05-18T00:19:50.180Z,18.87
2018-05-18T00:22:30.937Z,22.73
2018-05-18T00:25:11.372Z,18.23
2018-05-18T00:27:52.094Z,20.97
2018-05-18T00:30:34.424Z,18.17
2018-05-18T00:33:14.742Z,19.17
2018-05-18T00:35:55.555Z,22.87
2018-05-18T00:38:37.004Z,27.10
2018-05-18T00:41:17.589Z,22.20
2018-05-18T00:44:02.965Z,18.87
2018-05-18T00:46:43.289Z,22.00
2018-05-18T00:49:23.741Z,22.30
2018-05-18T00:52:04.150Z,23.40
2018-05-18T00:54:44.546Z,21.23
2018-05-18T00:57:24.998Z,25.13
2018-05-18T01:00:05.416Z,21.80
2018-05-18T01:02:45.919Z,24.63
2018-05-18T01:05:26.699Z,21.97
2018-05-18T01:08:07.216Z,22.20
2018-05-18T01:10:47.720Z,27.33
2018-05-18T01:13:28.200Z,30.60
2018-05-18T01:16:08.529Z,21.33
2018-05-18T01:18:49.052Z,26.43
2018-05-18T01:21:29.478Z,25.97
2018-05-18T01:24:09.843Z,25.90
2018-05-18T01:26:55.569Z,22.93
2018-05-18T01:29:35.848Z,23.40
2018-05-18T01:32:16.205Z,26.07
2018-05-18T01:34:56.659Z,25.97
2018-05-18T01:37:37.022Z,23.27
2018-05-18T01:40:17.401Z,23.10
2018-05-18T01:42:57.711Z,21.60
2018-05-18T01:45:38.515Z,22.90
2018-05-18T01:48:19.377Z,27.87
2018-05-18T01:50:59.714Z,28.20
2018-05-18T01:53:40.452Z,29.53
2018-05-18T01:56:20.849Z,29.80
2018-05-18T02:01:59.273Z,29.47
2018-05-18T02:04:43.375Z,26.87
2018-05-18T02:07:26.110Z,28.03
2018-05-18T02:10:06.492Z,31.10
2018-05-18T02:12:48.480Z,30.53
2018-05-18T02:15:29.310Z,33.53
2018-05-18T02:18:09.633Z,33.80
2018-05-18T02:20:50.581Z,34.43
2018-05-18T02:23:31.372Z,34.77
2018-05-18T02:26:14.750Z,39.67
2018-05-18T02:28:55.087Z,36.50
2018-05-18T02:31:35.627Z,42.37
2018-05-18T02:34:17.754Z,39.47
2018-05-18T02:37:01.487Z,37.77
2018-05-18T02:39:41.880Z,34.67
2018-05-18T02:42:23.432Z,40.80
2018-05-18T02:45:03.740Z,41.40
2018-05-18T02:47:44.080Z,41.63
2018-05-18T02:50:24.977Z,39.83
2018-05-18T02:53:05.305Z,37.50
2018-05-18T02:55:46.421Z,40.03
2018-05-18T02:58:26.772Z,46.43
2018-05-18T03:01:07.342Z,46.40
2018-05-18T03:03:47.780Z,46.67
2018-05-18T03:06:28.762Z,40.90
2018-05-18T03:09:09.219Z,42.63
2018-05-18T03:11:52.101Z,42.63
2018-05-18T03:14:32.540Z,40.43
2018-05-18T03:17:12.850Z,41.23
2018-05-18T03:19:55.398Z,44.07
2018-05-18T03:22:36.843Z,39.03
2018-05-18T03:25:18.577Z,42.43
2018-05-18T03:28:00.315Z,46.37
2018-05-18T03:30:41.788Z,50.20
2018-05-18T03:33:23.369Z,42.87
2018-05-18T03:36:03.834Z,40.53
2018-05-18T03:38:44.183Z,45.00
2018-05-18T03:41:26.364Z,43.87
2018-05-18T03:44:06.663Z,46.67
2018-05-18T03:46:47.936Z,44.07
2018-05-18T03:49:29.025Z,42.90
2018-05-18T03:52:09.325Z,42.47
2018-05-18T03:54:51.220Z,39.93
2018-05-18T03:57:31.913Z,46.97
2018-05-18T04:00:12.294Z,41.37
2018-05-18T04:03:15.873Z,39.33
2018-05-18T04:06:14.129Z,36.80
2018-05-18T04:08:56.057Z,38.83
2018-05-18T04:11:36.393Z,42.93
2018-05-18T04:14:17.279Z,43.80
2018-05-18T04:16:57.673Z,47.27
2018-05-18T04:19:37.985Z,46.40
2018-05-18T04:22:19.138Z,50.07
2018-05-18T04:24:59.645Z,46.60
2018-05-18T04:27:39.995Z,56.47
2018-05-18T04:30:20.663Z,48.43
2018-05-18T04:33:00.984Z,41.80
2018-05-18T04:35:43.297Z,47.73
2018-05-18T04:38:26.989Z,46.57
2018-05-18T04:41:07.190Z,47.00
2018-05-18T04:43:47.710Z,47.60
2018-05-18T04:46:28.144Z,43.53
2018-05-18T04:49:08.840Z,48.10
2018-05-18T04:51:51.240Z,42.80
2018-05-18T04:54:31.988Z,48.00
2018-05-18T04:57:13.359Z,48.00
2018-05-18T04:59:54.430Z,49.07
2018-05-18T05:02:34.743Z,47.10
2018-05-18T05:05:15.118Z,52.33
2018-05-18T05:07:56.914Z,49.10
2018-05-18T05:10:37.238Z,49.57
2018-05-18T05:13:17.578Z,52.07
2018-05-18T05:15:58.861Z,52.57
2018-05-18T05:18:39.201Z,48.10
2018-05-18T05:21:21.975Z,39.07
2018-05-18T05:24:02.322Z,55.13
2018-05-18T05:26:42.904Z,42.17
2018-05-18T05:29:23.340Z,47.13
2018-05-18T05:32:03.654Z,45.63
2018-05-18T05:34:43.824Z,49.17
2018-05-18T05:37:25.178Z,56.23
2018-05-18T05:40:05.835Z,48.57
2018-05-18T05:42:46.521Z,45.97
2018-05-18T05:45:27.677Z,44.40
2018-05-18T05:48:08.129Z,45.17
2018-05-18T05:50:49.197Z,43.00
2018-05-18T05:53:29.689Z,45.07
2018-05-18T05:56:10.602Z,48.43
2018-05-18T05:58:52.609Z,44.67
2018-05-18T06:01:32.910Z,44.23
2018-05-18T06:04:14.093Z,55.73
2018-05-18T06:06:55.188Z,44.83
2018-05-18T06:09:36.345Z,44.43
2018-05-18T06:12:18.201Z,45.63
2018-05-18T06:14:59.439Z,39.07
2018-05-18T06:17:40.593Z,44.73
2018-05-18T06:20:21.517Z,43.37
2018-05-18T06:23:01.894Z,47.13
2018-05-18T06:25:45.461Z,49.17
2018-05-18T06:28:25.695Z,54.10
2018-05-18T06:31:06.428Z,43.53
2018-05-18T06:33:46.851Z,39.57
2018-05-18T06:36:27.213Z,35.73
2018-05-18T06:39:07.681Z,39.67
2018-05-18T06:41:49.506Z,39.83
2018-05-18T06:44:29.734Z,38.40
2018-05-18T06:47:11.283Z,42.50
2018-05-18T06:49:53.659Z,36.63
2018-05-18T06:52:35.982Z,34.90
2018-05-18T06:55:16.477Z,42.30
2018-05-18T06:57:56.895Z,39.67
2018-05-18T07:00:40.153Z,34.10
2018-05-18T07:03:22.461Z,39.37
2018-05-18T07:06:06.185Z,34.57
2018-05-18T07:08:48.570Z,32.87
2018-05-18T07:11:29.172Z,39.10
2018-05-18T07:14:10.383Z,31.30
2018-05-18T07:16:52.188Z,40.53
2018-05-18T07:19:33.092Z,34.70
2018-05-18T07:22:14.571Z,25.33
2018-05-18T07:24:55.069Z,32.50
2018-05-18T07:27:35.430Z,37.07
2018-05-18T07:30:15.741Z,32.27
2018-05-18T07:32:56.149Z,40.50
2018-05-18T07:35:36.603Z,36.47
2018-05-18T07:38:17.653Z,40.90
2018-05-18T07:40:57.992Z,50.80
2018-05-18T07:43:38.459Z,42.47
2018-05-18T07:46:18.820Z,44.67
2018-05-18T07:48:59.209Z,36.27
2018-05-18T07:51:39.478Z,44.30
2018-05-18T07:54:20.529Z,34.57
2018-05-18T07:57:00.987Z,37.03
2018-05-18T07:59:41.345Z,39.17
2018-05-18T08:02:23.355Z,42.27
2018-05-18T08:05:03.800Z,36.27
2018-05-18T08:07:44.100Z,32.83
2018-05-18T08:10:25.428Z,36.37
2018-05-18T08:13:05.752Z,35.93
2018-05-18T08:15:46.133Z,35.80
2018-05-18T08:18:26.559Z,32.57
2018-05-18T08:21:06.909Z,35.40
2018-05-18T08:23:48.941Z,27.97
2018-05-18T08:26:36.966Z,35.40
2018-05-18T08:29:46.145Z,39.57
2018-05-18T08:32:26.785Z,37.10
2018-05-18T08:35:07.148Z,35.47
2018-05-18T08:37:48.424Z,30.23
2018-05-18T08:40:29.421Z,31.53
2018-05-18T08:43:09.748Z,30.90
2018-05-18T08:45:50.720Z,38.43
2018-05-18T08:48:31.900Z,30.37
2018-05-18T08:51:12.409Z,32.97
2018-05-18T08:53:53.639Z,34.77
2018-05-18T08:56:34.606Z,34.23
2018-05-18T08:59:18.646Z,32.30
2018-05-18T09:01:59.389Z,28.53
2018-05-18T09:04:39.782Z,40.63
2018-05-18T09:07:21.969Z,35.80
2018-05-18T09:10:02.972Z,28.13
2018-05-18T09:12:44.025Z,39.77
2018-05-18T09:15:27.390Z,38.37
2018-05-18T09:18:08.046Z,37.33
2018-05-18T09:20:48.848Z,31.90
2018-05-18T09:23:30.157Z,35.13
2018-05-18T09:26:16.213Z,33.97
2018-05-18T09:28:57.550Z,39.70
2018-05-18T09:31:38.869Z,35.00
2018-05-18T09:34:19.548Z,41.90
2018-05-18T09:36:59.888Z,32.03
2018-05-18T09:39:40.227Z,37.40
2018-05-18T09:42:22.026Z,32.33
2018-05-18T09:45:03.309Z,41.23
2018-05-18T09:47:43.942Z,38.27
2018-05-18T09:50:25.828Z,36.43
2018-05-18T09:53:06.184Z,27.40
2018-05-18T09:55:46.643Z,34.63
2018-05-18T09:58:27.007Z,31.47
2018-05-18T10:01:08.654Z,31.13
2018-05-18T10:03:52.825Z,29.10
2018-05-18T10:06:34.076Z,33.03
2018-05-18T10:09:15.153Z,35.80
2018-05-18T10:11:55.786Z,32.37
2018-05-18T10:14:36.081Z,36.80
2018-05-18T10:17:17.752Z,35.03
2018-05-18T10:19:58.090Z,30.57
2018-05-18T10:22:38.513Z,32.10
2018-05-18T10:25:28.804Z,29.67
2018-05-18T10:28:09.252Z,38.93
2018-05-18T10:30:50.776Z,31.87
2018-05-18T10:33:32.941Z,36.00
2018-05-18T10:36:13.997Z,35.40
2018-05-18T10:39:00.712Z,37.40
2018-05-18T10:41:41.828Z,39.23
2018-05-18T10:44:22.502Z,36.10
2018-05-18T10:47:06.090Z,36.07
2018-05-18T10:49:47.952Z,30.63
2018-05-18T10:52:28.412Z,41.33
2018-05-18T10:55:08.731Z,38.13
2018-05-18T10:57:49.517Z,36.67
2018-05-18T11:00:29.856Z,33.70
2018-05-18T11:03:10.264Z,33.97
2018-05-18T11:05:57.922Z,35.07
2018-05-18T11:08:39.197Z,35.80
2018-05-18T11:11:19.616Z,37.60
2018-05-18T11:14:00.666Z,36.43
2018-05-18T11:16:43.854Z,36.57
2018-05-18T11:19:25.616Z,36.33
2018-05-18T11:22:05.952Z,36.57
2018-05-18T11:24:46.447Z,34.50
2018-05-18T11:27:26.808Z,32.60
2018-05-18T11:30:07.249Z,42.07
2018-05-18T11:32:47.566Z,40.97
2018-05-18T11:35:33.389Z,44.43
2018-05-18T11:38:13.914Z,40.77
2018-05-18T11:40:55.234Z,42.20
2018-05-18T11:43:35.574Z,34.87
2018-05-18T11:46:17.889Z,38.37
2018-05-18T11:48:59.691Z,41.80
2018-05-18T11:51:40.153Z,41.10
2018-05-18T11:54:24.460Z,38.90
2018-05-18T11:57:06.263Z,38.10
2018-05-18T11:59:46.741Z,43.07
2018-05-18T12:02:28.463Z,41.87
2018-05-18T12:05:08.770Z,41.03
2018-05-18T12:07:51.185Z,45.07
2018-05-18T12:10:34.602Z,41.90
2018-05-18T12:13:15.078Z,41.53
2018-05-18T12:15:55.931Z,40.63
2018-05-18T12:18:36.393Z,37.53
2018-05-18T12:21:17.498Z,43.13
2018-05-18T12:23:58.007Z,37.10
2018-05-18T12:26:44.260Z,35.40
2018-05-18T12:29:26.912Z,38.60
2018-05-18T12:32:17.752Z,36.60
2018-05-18T12:35:03.586Z,37.70
2018-05-18T12:37:43.904Z,40.77
2018-05-18T12:40:24.871Z,40.37
2018-05-18T12:43:06.209Z,42.63
2018-05-18T12:45:47.241Z,43.10
2018-05-18T12:48:32.079Z,44.40
2018-05-18T12:51:14.615Z,42.27
2018-05-18T12:53:55.185Z,45.83
2018-05-18T12:56:35.576Z,38.27
2018-05-18T12:59:15.921Z,38.90
2018-05-18T13:01:57.050Z,36.13
2018-05-18T13:04:37.520Z,37.47
2018-05-18T13:07:17.788Z,35.97
2018-05-18T13:09:59.868Z,44.43
2018-05-18T13:12:40.206Z,45.20
2018-05-18T13:15:21.554Z,41.97
2018-05-18T13:18:02.291Z,43.30
2018-05-18T13:20:42.729Z,37.63
2018-05-18T13:23:23.539Z,39.57
2018-05-18T13:26:04.009Z,38.10
2018-05-18T13:28:44.242Z,40.10
2018-05-18T13:31:29.726Z,41.63
2018-05-18T13:34:10.071Z,41.47
2018-05-18T13:36:52.193Z,47.37
2018-05-18T13:39:32.558Z,44.40
2018-05-18T13:42:12.870Z,41.97
2018-05-18T13:44:54.624Z,41.50
2018-05-18T13:47:36.300Z,41.10
2018-05-18T13:50:17.899Z,43.07
2018-05-18T13:52:58.216Z,47.20
2018-05-18T13:55:39.180Z,42.27
2018-05-18T13:58:21.011Z,48.83
2018-05-18T14:01:04.245Z,44.27
2018-05-18T14:03:45.007Z,42.13
2018-05-18T14:06:25.779Z,53.13
2018-05-18T14:09:07.930Z,45.93
2018-05-18T14:11:48.305Z,48.20
2018-05-18T14:14:30.493Z,48.63
2018-05-18T14:17:10.960Z,43.60
2018-05-18T14:19:53.467Z,42.77
2018-05-18T14:22:34.693Z,42.40
2018-05-18T14:25:15.221Z,40.27
2018-05-18T14:27:55.594Z,44.17
2018-05-18T14:30:36.481Z,42.77
2018-05-18T14:33:17.188Z,42.83
2018-05-18T14:35:58.161Z,38.50
2018-05-18T14:38:38.422Z,45.03
2018-05-18T14:41:18.622Z,39.80
2018-05-18T14:43:59.332Z,44.03
2018-05-18T14:46:39.766Z,43.80
2018-05-18T14:49:21.744Z,57.17
2018-05-18T14:52:02.901Z,42.13
2018-05-18T14:54:43.514Z,40.50
2018-05-18T14:57:25.897Z,41.23
2018-05-18T15:00:06.096Z,40.07
2018-05-18T15:02:46.408Z,45.53
2018-05-18T15:05:26.735Z,40.07
2018-05-18T15:08:07.087Z,41.33
2018-05-18T15:10:48.136Z,35.23
2018-05-18T15:13:28.494Z,36.03
2018-05-18T15:16:08.884Z,44.13
2018-05-18T15:18:50.761Z,37.87
2018-05-18T15:21:31.246Z,44.00
2018-05-18T15:24:11.540Z,41.20
2018-05-18T15:26:52.808Z,39.03
2018-05-18T15:29:34.215Z,38.00
2018-05-18T15:32:14.703Z,44.13
2018-05-18T15:34:56.432Z,44.10
2018-05-18T15:37:36.809Z,43.23
2018-05-18T15:43:35.274Z,38.63
2018-05-18T15:46:16.493Z,36.60
2018-05-18T15:48:59.910Z,40.37
2018-05-18T15:51:40.265Z,42.73
2018-05-18T15:54:20.944Z,51.73
2018-05-18T15:57:02.315Z,46.50
2018-05-18T15:59:59.040Z,42.45
2018-05-18T16:02:42.173Z,41.23
2018-05-18T16:05:23.831Z,41.60
2018-05-18T16:08:04.370Z,41.47
2018-05-18T16:10:44.785Z,35.13
2018-05-18T16:13:25.562Z,44.30
2018-05-18T16:16:07.313Z,42.87
2018-05-18T16:18:50.133Z,38.70
2018-05-18T16:21:31.950Z,45.23
2018-05-18T16:24:13.319Z,39.90
2018-05-18T16:26:55.391Z,45.47
2018-05-18T16:29:41.854Z,47.83
2018-05-18T16:32:24.187Z,44.93
2018-05-18T16:35:07.135Z,51.70
2018-05-18T16:37:47.498Z,46.93
2018-05-18T16:40:28.218Z,44.93
2018-05-18T16:43:09.632Z,50.43
2018-05-18T16:45:50.070Z,44.40
2018-05-18T16:48:33.040Z,42.27
2018-05-18T16:51:13.355Z,47.67
2018-05-18T16:53:56.069Z,51.03
2018-05-18T16:56:36.518Z,48.13
2018-05-18T16:59:16.825Z,50.50
2018-05-18T17:01:57.952Z,48.13
2018-05-18T17:04:39.529Z,47.83
2018-05-18T17:07:20.142Z,41.63
2018-05-18T17:10:03.505Z,40.70
2018-05-18T17:12:44.029Z,36.17
2018-05-18T17:15:24.968Z,42.20
2018-05-18T17:18:06.031Z,38.87
2018-05-18T17:20:53.897Z,44.13
2018-05-18T17:23:35.039Z,50.30
2018-05-18T17:26:16.704Z,48.20
2018-05-18T17:29:02.910Z,48.50
2018-05-18T17:31:43.328Z,52.83
2018-05-18T17:34:25.968Z,49.57
2018-05-18T17:37:07.254Z,40.33
2018-05-18T17:39:47.709Z,49.57
2018-05-18T17:42:31.858Z,46.60
2018-05-18T17:45:14.657Z,45.73
2018-05-18T17:47:55.932Z,51.90
2018-05-18T17:50:36.325Z,47.00
2018-05-18T17:53:17.599Z,53.23
2018-05-18T17:55:58.997Z,45.10
2018-05-18T17:58:41.105Z,47.67
2018-05-18T18:01:22.855Z,42.30
2018-05-18T18:04:03.351Z,42.33
2018-05-18T18:06:47.959Z,50.40
2018-05-18T18:09:28.457Z,49.83
2018-05-18T18:12:12.269Z,45.87
2018-05-18T18:14:53.092Z,52.73
2018-05-18T18:17:35.794Z,47.50
2018-05-18T18:20:16.345Z,47.43
2018-05-18T18:23:02.657Z,46.27
2018-05-18T18:25:44.065Z,41.13
2018-05-18T18:28:24.928Z,44.30
2018-05-18T18:31:06.601Z,41.93
2018-05-18T18:33:46.902Z,40.27
2018-05-18T18:36:27.406Z,42.00
2018-05-18T18:39:08.637Z,44.73
2018-05-18T18:41:49.066Z,51.63
2018-05-18T18:44:31.070Z,48.83
2018-05-18T18:47:15.093Z,48.03
2018-05-18T18:49:55.725Z,45.63
2018-05-18T18:52:39.085Z,48.40
2018-05-18T18:55:19.478Z,45.43
2018-05-18T18:58:00.934Z,52.67
2018-05-18T19:00:41.397Z,53.13
2018-05-18T19:03:24.281Z,48.30
2018-05-18T19:06:04.713Z,51.17
2018-05-18T19:08:45.071Z,50.53
2018-05-18T19:11:25.882Z,51.30
2018-05-18T19:14:07.328Z,48.83
2018-05-18T19:16:49.708Z,50.20
2018-05-18T19:19:30.134Z,48.90
2018-05-18T19:22:15.060Z,48.17
2018-05-18T19:24:55.663Z,55.97
2018-05-18T19:27:35.969Z,53.33
2018-05-18T19:30:16.377Z,51.33
2018-05-18T19:32:57.219Z,49.17
2018-05-18T19:35:37.563Z,57.87
2018-05-18T19:38:19.354Z,49.43
2018-05-18T19:41:00.333Z,49.20
2018-05-18T19:43:41.625Z,50.17
2018-05-18T19:46:22.640Z,41.57
2018-05-18T19:49:03.765Z,55.13
2018-05-18T19:51:44.090Z,45.10
2018-05-18T19:54:24.968Z,49.03
2018-05-18T19:57:06.064Z,47.97
2018-05-18T19:59:46.500Z,50.40
2018-05-18T20:02:26.732Z,48.47
2018-05-18T20:05:07.055Z,51.83
2018-05-18T20:07:48.137Z,57.10
2018-05-18T20:10:29.449Z,49.97
2018-05-18T20:13:10.246Z,45.53
2018-05-18T20:15:51.425Z,45.40
2018-05-18T20:18:31.924Z,46.87
2018-05-18T20:21:12.506Z,47.23
2018-05-18T20:23:58.872Z,48.03
2018-05-18T20:26:39.349Z,44.60
2018-05-18T20:29:19.680Z,50.43
2018-05-18T20:32:00.644Z,42.30
2018-05-18T20:34:42.757Z,47.57
2018-05-18T20:37:23.225Z,51.67
2018-05-18T20:40:03.838Z,48.40
2018-05-18T20:42:45.006Z,45.23
2018-05-18T20:45:26.788Z,44.97
2018-05-18T20:48:08.678Z,45.50
2018-05-18T20:50:49.932Z,41.93
2018-05-18T20:53:30.232Z,46.53
2018-05-18T20:56:10.656Z,39.60
2018-05-18T20:58:51.521Z,39.47
2018-05-18T21:01:31.916Z,40.37
2018-05-18T21:04:12.290Z,43.70
2018-05-18T21:06:55.828Z,42.03
2018-05-18T21:09:40.304Z,41.60
2018-05-18T21:12:20.760Z,43.13
2018-05-18T21:15:01.151Z,43.20
2018-05-18T21:17:41.497Z,45.80
2018-05-18T21:20:24.653Z,50.40
2018-05-18T21:23:08.005Z,38.37
2018-05-18T21:25:49.593Z,40.13
2018-05-18T21:28:30.717Z,45.83
2018-05-18T21:31:12.821Z,39.77
2018-05-18T21:34:02.068Z,42.80
2018-05-18T21:36:42.409Z,48.87
2018-05-18T21:39:27.862Z,47.13
2018-05-18T21:42:09.081Z,44.80
2018-05-18T21:44:51.139Z,43.93
2018-05-18T21:47:33.747Z,46.13
2018-05-18T21:50:14.094Z,47.57
2018-05-18T21:52:54.865Z,60.63
2018-05-18T21:55:35.318Z,60.57
2018-05-18T21:58:15.772Z,49.10
2018-05-18T22:00:56.221Z,58.93
2018-05-18T22:03:36.556Z,63.67
2018-05-18T22:06:17.168Z,53.40
2018-05-18T22:08:58.485Z,54.73
2018-05-18T22:11:46.797Z,58.37
2018-05-18T22:14:31.715Z,56.60
2018-05-18T22:17:12.120Z,51.60
2018-05-18T22:19:57.060Z,50.97
2018-05-18T22:22:44.022Z,46.73
2018-05-18T22:25:24.986Z,42.07
2018-05-18T22:28:05.408Z,41.73
2018-05-18T22:30:45.768Z,34.80
2018-05-18T22:33:26.625Z,31.40
2018-05-18T22:36:07.875Z,30.73
2018-05-18T22:38:48.604Z,27.70
2018-05-18T22:41:29.699Z,18.57
2018-05-18T22:44:11.057Z,18.27
2018-05-18T22:46:53.297Z,18.57
2018-05-18T22:49:33.734Z,17.37
2018-05-18T22:52:14.173Z,15.37
2018-05-18T22:55:00.183Z,14.73
2018-05-18T22:57:42.813Z,14.90
2018-05-18T23:00:26.837Z,14.00
2018-05-18T23:03:07.261Z,16.67
2018-05-18T23:05:47.715Z,14.03
2018-05-18T23:08:28.053Z,13.37
2018-05-18T23:11:10.203Z,14.57
2018-05-18T23:13:57.341Z,16.63
2018-05-18T23:16:37.682Z,15.53
2018-05-18T23:19:18.794Z,14.40
2018-05-18T23:21:59.193Z,14.93
2018-05-18T23:24:40.424Z,16.90
2018-05-18T23:27:28.689Z,13.87
2018-05-18T23:30:10.407Z,14.70
2018-05-18T23:32:51.689Z,16.90
2018-05-18T23:35:32.111Z,20.33
2018-05-18T23:38:12.528Z,21.07
2018-05-18T23:40:53.928Z,19.80
2018-05-18T23:43:34.284Z,21.60
2018-05-18T23:46:14.622Z,21.53
2018-05-18T23:48:54.953Z,20.63
2018-05-18T23:51:35.316Z,19.93
2018-05-18T23:54:15.680Z,22.63
2018-05-18T23:56:56.174Z,24.03
2018-05-18T23:59:36.565Z,24.80
